createdAt,value
2019-02-25T00:02:32.269Z,16.45
2019-02-25T00:05:01.045Z,14.28
2019-02-25T00:07:29.931Z,12.80
2019-02-25T00:09:58.697Z,16.70
2019-02-25T00:12:27.549Z,16.82
2019-02-25T00:14:56.654Z,13.50
2019-02-25T00:17:25.527Z,12.80
2019-02-25T00:19:54.977Z,15.15
2019-02-25T00:22:23.730Z,12.80
2019-02-25T00:24:52.602Z,13.53
2019-02-25T00:27:21.373Z,14.05
2019-02-25T00:29:50.247Z,13.65
2019-02-25T00:32:19.036Z,17.02
2019-02-25T00:34:47.883Z,18.32
2019-02-25T00:37:16.698Z,15.55
2019-02-25T00:39:45.462Z,13.45
2019-02-25T00:42:14.248Z,13.35
2019-02-25T00:44:43.066Z,11.40
2019-02-25T00:47:11.855Z,14.38
2019-02-25T00:49:40.988Z,14.73
2019-02-25T00:52:09.838Z,14.40
2019-02-25T00:54:38.602Z,15.95
2019-02-25T00:57:09.008Z,13.98
2019-02-25T00:59:38.268Z,16.42
2019-02-25T01:02:07.536Z,16.52
2019-02-25T01:04:37.079Z,14.05
2019-02-25T01:07:06.072Z,16.25
2019-02-25T01:09:34.841Z,13.95
2019-02-25T01:12:03.790Z,16.50
2019-02-25T01:14:33.201Z,12.95
2019-02-25T01:17:01.973Z,15.38
2019-02-25T01:19:31.167Z,15.28
2019-02-25T01:21:59.936Z,13.25
2019-02-25T01:24:28.737Z,16.73
2019-02-25T01:26:57.656Z,15.32
2019-02-25T01:29:26.470Z,14.15
2019-02-25T01:31:56.390Z,12.88
2019-02-25T01:34:25.990Z,16.00
2019-02-25T01:36:55.075Z,17.27
2019-02-25T01:39:24.346Z,14.80
2019-02-25T01:41:53.213Z,23.25
2019-02-25T01:44:22.669Z,17.07
2019-02-25T01:46:51.852Z,56.90
2019-02-25T01:49:20.986Z,25.52
2019-02-25T01:51:50.467Z,19.67
2019-02-25T01:54:20.006Z,23.65
2019-02-25T01:56:48.790Z,16.42
2019-02-25T01:59:17.552Z,12.55
2019-02-25T02:01:46.343Z,14.15
2019-02-25T02:04:15.133Z,12.23
2019-02-25T02:06:43.916Z,15.60
2019-02-25T02:09:12.990Z,13.60
2019-02-25T02:11:42.095Z,13.60
2019-02-25T02:14:10.890Z,18.75
2019-02-25T02:16:39.684Z,18.77
2019-02-25T02:19:08.454Z,13.32
2019-02-25T02:21:37.218Z,12.70
2019-02-25T02:24:06.078Z,14.15
2019-02-25T02:26:34.867Z,14.47
2019-02-25T02:31:45.999Z,18.55
2019-02-25T02:34:15.128Z,13.78
2019-02-25T02:36:43.917Z,17.23
2019-02-25T02:39:12.699Z,15.25
2019-02-25T02:42:22.373Z,15.93
2019-02-25T02:44:56.775Z,15.48
2019-02-25T02:47:35.668Z,15.90
2019-02-25T02:50:05.832Z,12.80
2019-02-25T02:52:35.356Z,14.65
2019-02-25T02:55:05.060Z,15.85
2019-02-25T02:57:34.552Z,13.55
2019-02-25T03:00:04.589Z,12.43
2019-02-25T03:02:33.699Z,13.72
2019-02-25T03:05:02.541Z,19.10
2019-02-25T03:07:31.329Z,15.03
2019-02-25T03:10:00.274Z,16.77
2019-02-25T03:12:29.435Z,16.00
2019-02-25T03:14:58.202Z,14.38
2019-02-25T03:17:27.431Z,16.62
2019-02-25T03:19:56.566Z,13.08
2019-02-25T03:22:25.792Z,12.05
2019-02-25T03:24:55.283Z,14.38
2019-02-25T03:27:24.534Z,14.58
2019-02-25T03:29:53.784Z,13.55
2019-02-25T03:32:23.242Z,13.40
2019-02-25T03:34:52.444Z,13.58
2019-02-25T03:37:21.237Z,15.90
2019-02-25T03:39:49.998Z,14.80
2019-02-25T03:42:18.784Z,14.83
2019-02-25T03:44:47.942Z,17.75
2019-02-25T03:47:16.715Z,15.63
2019-02-25T03:49:45.491Z,13.90
2019-02-25T03:52:14.286Z,16.67
2019-02-25T03:54:43.060Z,16.17
2019-02-25T03:57:11.894Z,14.95
2019-02-25T03:59:40.852Z,15.88
2019-02-25T04:02:09.766Z,19.42
2019-02-25T04:04:38.609Z,17.05
2019-02-25T04:07:07.564Z,14.35
2019-02-25T04:09:36.340Z,15.45
2019-02-25T04:12:05.256Z,20.88
2019-02-25T04:14:34.109Z,28.67
2019-02-25T04:17:02.889Z,14.18
2019-02-25T04:19:31.652Z,14.15
2019-02-25T04:22:00.457Z,16.65
2019-02-25T04:24:29.266Z,13.85
2019-02-25T04:26:58.038Z,20.65
2019-02-25T04:29:26.812Z,15.90
2019-02-25T04:31:55.635Z,18.95
2019-02-25T04:34:24.433Z,17.17
2019-02-25T04:36:53.206Z,13.53
2019-02-25T04:39:22.044Z,15.53
2019-02-25T04:41:50.833Z,15.98
2019-02-25T04:44:19.608Z,20.62
2019-02-25T04:46:48.397Z,16.32
2019-02-25T04:49:17.229Z,15.35
2019-02-25T04:51:46.014Z,16.07
2019-02-25T04:54:14.775Z,22.70
2019-02-25T04:56:43.576Z,21.48
2019-02-25T04:59:12.364Z,15.05
2019-02-25T05:01:41.149Z,20.37
2019-02-25T05:04:09.973Z,17.65
2019-02-25T05:06:38.834Z,17.62
2019-02-25T05:09:07.682Z,26.23
2019-02-25T05:11:45.665Z,24.98
2019-02-25T05:14:43.120Z,18.00
2019-02-25T05:17:14.688Z,25.10
2019-02-25T05:19:43.498Z,17.17
2019-02-25T05:22:12.548Z,16.35
2019-02-25T05:24:45.818Z,16.82
2019-02-25T05:27:14.610Z,17.95
2019-02-25T05:29:43.442Z,15.28
2019-02-25T05:32:12.233Z,13.70
2019-02-25T05:34:41.054Z,20.12
2019-02-25T05:37:09.935Z,28.32
2019-02-25T05:39:39.964Z,41.63
2019-02-25T05:42:08.759Z,30.25
2019-02-25T05:44:37.529Z,36.77
2019-02-25T05:47:06.325Z,23.70
2019-02-25T05:49:35.128Z,19.27
2019-02-25T05:52:04.296Z,13.13
2019-02-25T05:54:33.066Z,18.87
2019-02-25T05:57:01.870Z,33.02
2019-02-25T05:59:38.706Z,24.27
2019-02-25T06:02:07.575Z,19.55
2019-02-25T06:04:36.665Z,23.22
2019-02-25T06:07:06.528Z,26.12
2019-02-25T06:09:35.932Z,34.67
2019-02-25T06:12:04.796Z,45.60
2019-02-25T06:14:33.925Z,107.90
2019-02-25T06:17:03.229Z,32.42
2019-02-25T06:19:32.531Z,21.07
2019-02-25T06:22:01.647Z,23.30
2019-02-25T06:24:30.787Z,23.47
2019-02-25T06:27:00.203Z,19.60
2019-02-25T06:29:29.355Z,30.70
2019-02-25T06:31:58.166Z,36.05
2019-02-25T06:34:30.879Z,22.27
2019-02-25T06:37:01.885Z,18.17
2019-02-25T06:39:30.670Z,19.42
2019-02-25T06:45:17.236Z,21.33
2019-02-25T06:47:46.486Z,25.40
2019-02-25T06:50:15.723Z,34.58
2019-02-25T06:52:44.578Z,20.17
2019-02-25T06:55:14.945Z,17.80
2019-02-25T06:57:43.985Z,21.40
2019-02-25T07:00:20.743Z,17.35
2019-02-25T07:02:51.312Z,21.55
2019-02-25T07:05:25.431Z,29.77
2019-02-25T07:07:57.371Z,22.50
2019-02-25T07:10:52.506Z,27.07
2019-02-25T07:13:56.036Z,34.58
2019-02-25T07:16:49.644Z,26.12
2019-02-25T07:19:32.147Z,33.00
2019-02-25T07:22:29.018Z,35.58
2019-02-25T07:25:17.800Z,25.52
2019-02-25T07:28:17.954Z,21.37
2019-02-25T07:31:00.986Z,37.88
2019-02-25T07:33:45.460Z,32.28
2019-02-25T07:36:32.674Z,38.53
2019-02-25T07:39:09.873Z,36.98
2019-02-25T07:42:02.000Z,38.78
2019-02-25T07:44:46.794Z,55.55
2019-02-25T07:47:27.888Z,36.23
2019-02-25T07:50:22.417Z,42.10
2019-02-25T07:53:16.854Z,31.75
2019-02-25T07:56:02.317Z,56.15
2019-02-25T07:58:45.427Z,25.90
2019-02-25T08:01:39.528Z,18.62
2019-02-25T08:04:18.728Z,21.17
2019-02-25T08:07:00.029Z,19.85
2019-02-25T08:09:53.644Z,19.80
2019-02-25T08:12:38.280Z,19.23
2019-02-25T08:15:20.960Z,15.50
2019-02-25T08:18:13.631Z,17.95
2019-02-25T08:21:00.419Z,23.02
2019-02-25T08:23:50.310Z,19.60
2019-02-25T08:26:29.189Z,20.12
2019-02-25T08:29:10.133Z,22.45
2019-02-25T08:31:49.476Z,15.32
2019-02-25T08:35:03.333Z,25.00
2019-02-25T08:38:00.006Z,24.18
2019-02-25T08:41:08.157Z,17.07
2019-02-25T08:43:58.842Z,17.98
2019-02-25T08:46:33.163Z,19.07
2019-02-25T08:49:10.061Z,19.62
2019-02-25T08:51:39.771Z,17.70
2019-02-25T08:54:09.020Z,21.97
2019-02-25T08:56:38.230Z,22.00
2019-02-25T08:59:07.097Z,17.07
2019-02-25T09:01:36.269Z,17.55
2019-02-25T09:04:05.120Z,16.15
2019-02-25T09:06:34.444Z,19.73
2019-02-25T09:09:05.189Z,21.37
2019-02-25T09:11:34.110Z,23.00
2019-02-25T09:14:04.062Z,37.28
2019-02-25T09:16:32.899Z,29.27
2019-02-25T09:19:04.961Z,33.88
2019-02-25T09:21:33.825Z,59.77
2019-02-25T09:24:02.671Z,32.75
2019-02-25T09:26:31.883Z,35.68
2019-02-25T09:29:01.121Z,30.70
2019-02-25T09:31:30.336Z,28.05
2019-02-25T09:33:59.142Z,29.23
2019-02-25T09:36:33.584Z,21.97
2019-02-25T09:39:02.824Z,22.25
2019-02-25T09:41:31.711Z,16.65
2019-02-25T09:44:01.553Z,18.57
2019-02-25T09:46:31.619Z,14.73
2019-02-25T09:49:00.405Z,17.62
2019-02-25T09:51:29.212Z,13.90
2019-02-25T09:53:58.325Z,15.63
2019-02-25T09:56:27.436Z,17.07
2019-02-25T09:58:56.209Z,13.25
2019-02-25T10:01:24.999Z,15.13
2019-02-25T10:03:53.875Z,12.80
2019-02-25T10:06:23.452Z,14.60
2019-02-25T10:08:52.236Z,13.88
2019-02-25T10:11:21.243Z,16.57
2019-02-25T10:13:51.787Z,16.52
2019-02-25T10:16:20.478Z,14.90
2019-02-25T10:19:17.871Z,11.97
2019-02-25T10:21:47.620Z,10.28
2019-02-25T10:24:17.715Z,13.55
2019-02-25T10:26:46.858Z,13.75
2019-02-25T10:29:15.667Z,14.45
2019-02-25T10:31:44.808Z,12.63
2019-02-25T10:34:13.939Z,15.38
2019-02-25T10:36:45.647Z,14.30
2019-02-25T10:39:17.720Z,13.00
2019-02-25T10:41:47.552Z,13.60
2019-02-25T10:44:18.719Z,13.28
2019-02-25T10:46:49.076Z,13.35
2019-02-25T10:49:17.914Z,11.68
2019-02-25T10:51:46.724Z,12.80
2019-02-25T10:54:17.385Z,13.48
2019-02-25T10:56:51.626Z,12.30
2019-02-25T10:59:20.866Z,12.03
2019-02-25T11:01:49.670Z,14.98
2019-02-25T11:04:20.029Z,12.40
2019-02-25T11:06:49.013Z,56.63
2019-02-25T11:09:29.992Z,16.67
2019-02-25T11:12:00.262Z,14.60
2019-02-25T11:14:31.116Z,13.58
2019-02-25T11:16:59.633Z,12.30
2019-02-25T11:19:30.599Z,11.28
2019-02-25T11:21:59.198Z,11.53
2019-02-25T11:24:27.971Z,11.63
2019-02-25T11:27:03.494Z,11.08
2019-02-25T11:29:33.151Z,11.10
2019-02-25T11:32:02.829Z,11.03
2019-02-25T11:34:35.565Z,10.10
2019-02-25T11:39:34.974Z,9.75
2019-02-25T11:42:10.281Z,9.90
2019-02-25T11:44:39.845Z,9.10
2019-02-25T11:47:09.231Z,10.28
2019-02-25T11:49:40.368Z,9.63
2019-02-25T11:52:09.611Z,9.08
2019-02-25T11:54:38.460Z,8.68
2019-02-25T11:57:07.431Z,7.95
2019-02-25T11:59:36.656Z,10.53
2019-02-25T12:02:07.906Z,6.33
2019-02-25T12:04:39.154Z,6.83
2019-02-25T12:07:09.012Z,6.78
2019-02-25T12:09:38.192Z,5.30
2019-02-25T12:12:08.388Z,5.92
2019-02-25T12:14:37.333Z,3.85
2019-02-25T12:17:07.230Z,3.15
2019-02-25T12:19:36.680Z,4.12
2019-02-25T12:22:06.116Z,3.30
2019-02-25T12:24:34.900Z,3.87
2019-02-25T12:27:03.704Z,2.98
2019-02-25T12:29:32.501Z,4.50
2019-02-25T12:32:01.720Z,3.65
2019-02-25T12:34:56.485Z,3.10
2019-02-25T12:37:25.690Z,2.58
2019-02-25T12:39:54.584Z,2.37
2019-02-25T12:42:23.420Z,4.22
2019-02-25T12:44:52.212Z,3.35
2019-02-25T12:47:21.440Z,8.70
2019-02-25T12:49:50.933Z,5.28
2019-02-25T12:52:19.705Z,3.12
2019-02-25T12:54:48.870Z,3.42
2019-02-25T12:57:17.655Z,3.70
2019-02-25T12:59:46.761Z,3.42
2019-02-25T13:02:16.919Z,3.90
2019-02-25T13:04:46.403Z,4.55
2019-02-25T13:07:16.988Z,3.55
2019-02-25T13:09:46.140Z,3.22
2019-02-25T13:12:17.262Z,3.58
2019-02-25T13:14:46.088Z,4.83
2019-02-25T13:17:14.832Z,3.05
2019-02-25T13:19:43.621Z,3.20
2019-02-25T13:22:12.392Z,3.55
2019-02-25T13:24:41.277Z,4.33
2019-02-25T13:27:11.787Z,4.03
2019-02-25T13:29:40.537Z,3.85
2019-02-25T13:32:12.057Z,3.70
2019-02-25T13:34:40.805Z,2.47
2019-02-25T13:37:10.300Z,2.37
2019-02-25T13:39:39.074Z,3.65
2019-02-25T13:42:07.848Z,4.83
2019-02-25T13:44:36.669Z,3.08
2019-02-25T13:47:05.955Z,12.93
2019-02-25T13:49:34.735Z,2.85
2019-02-25T13:52:03.696Z,2.40
2019-02-25T13:54:32.641Z,2.52
2019-02-25T13:57:01.411Z,2.60
2019-02-25T13:59:31.549Z,2.77
2019-02-25T14:02:03.344Z,3.55
2019-02-25T14:04:32.116Z,2.77
2019-02-25T14:07:02.323Z,10.13
2019-02-25T14:09:31.186Z,3.10
2019-02-25T14:12:00.054Z,5.95
2019-02-25T14:14:28.823Z,2.58
2019-02-25T14:16:57.975Z,2.72
2019-02-25T14:19:30.244Z,2.60
2019-02-25T14:22:23.380Z,3.10
2019-02-25T14:24:57.015Z,2.55
2019-02-25T14:27:27.162Z,3.52
2019-02-25T14:29:56.458Z,3.12
2019-02-25T14:32:27.846Z,4.55
2019-02-25T14:34:55.898Z,4.97
2019-02-25T14:37:24.860Z,9.53
2019-02-25T14:39:54.405Z,4.30
2019-02-25T14:42:26.021Z,6.40
2019-02-25T14:44:56.375Z,16.17
2019-02-25T14:47:31.232Z,8.90
2019-02-25T14:50:00.553Z,3.22
2019-02-25T14:52:31.339Z,5.03
2019-02-25T14:55:01.331Z,3.20
2019-02-25T14:57:30.835Z,14.60
2019-02-25T15:00:01.011Z,6.20
2019-02-25T15:02:29.817Z,4.65
2019-02-25T15:04:58.571Z,8.08
2019-02-25T15:07:27.405Z,8.33
2019-02-25T15:09:57.947Z,10.23
2019-02-25T15:12:29.509Z,8.00
2019-02-25T15:15:00.134Z,10.75
2019-02-25T15:17:30.064Z,9.35
2019-02-25T15:19:58.932Z,17.67
2019-02-25T15:22:28.243Z,10.15
2019-02-25T15:24:59.304Z,11.70
2019-02-25T15:27:28.412Z,9.50
2019-02-25T15:29:57.387Z,8.70
2019-02-25T15:32:26.269Z,16.15
2019-02-25T15:34:57.130Z,17.35
2019-02-25T15:37:25.661Z,8.95
2019-02-25T15:39:55.901Z,11.57
2019-02-25T15:42:26.071Z,16.30
2019-02-25T15:44:57.484Z,11.00
2019-02-25T15:47:26.497Z,10.23
2019-02-25T15:49:59.605Z,8.70
2019-02-25T15:52:27.570Z,13.38
2019-02-25T15:54:56.679Z,7.78
2019-02-25T15:57:26.391Z,8.68
2019-02-25T15:59:56.203Z,8.00
2019-02-25T16:02:24.977Z,7.35
2019-02-25T16:04:56.424Z,16.32
2019-02-25T16:07:26.009Z,8.83
2019-02-25T16:09:57.131Z,8.13
2019-02-25T16:12:27.084Z,7.67
2019-02-25T16:14:56.387Z,9.60
2019-02-25T16:17:25.254Z,11.80
2019-02-25T16:19:54.691Z,9.95
2019-02-25T16:22:25.733Z,14.05
2019-02-25T16:24:54.155Z,10.45
2019-02-25T16:27:23.578Z,10.90
2019-02-25T16:29:55.932Z,14.87
2019-02-25T16:32:26.132Z,8.93
2019-02-25T16:34:56.002Z,9.45
2019-02-25T16:37:27.350Z,10.38
2019-02-25T16:40:00.251Z,13.55
2019-02-25T16:42:28.229Z,9.20
2019-02-25T16:45:01.142Z,11.88
2019-02-25T16:47:34.578Z,11.95
2019-02-25T16:50:00.660Z,8.70
2019-02-25T16:52:29.468Z,7.65
2019-02-25T16:54:58.259Z,8.58
2019-02-25T16:57:27.400Z,20.00
2019-02-25T16:59:57.610Z,8.33
2019-02-25T17:02:27.481Z,9.55
2019-02-25T17:04:57.799Z,9.98
2019-02-25T17:07:26.790Z,11.85
2019-02-25T17:09:56.883Z,14.63
2019-02-25T17:12:27.480Z,10.05
2019-02-25T17:14:56.652Z,10.75
2019-02-25T17:17:25.621Z,13.72
2019-02-25T17:19:54.488Z,11.97
2019-02-25T17:22:23.243Z,14.73
2019-02-25T17:24:52.424Z,14.80
2019-02-25T17:27:22.568Z,13.68
2019-02-25T17:29:53.316Z,20.23
2019-02-25T17:32:23.276Z,12.95
2019-02-25T17:34:52.481Z,24.67
2019-02-25T17:37:21.240Z,26.90
2019-02-25T17:39:54.070Z,19.62
2019-02-25T17:42:22.085Z,20.85
2019-02-25T17:44:53.626Z,18.67
2019-02-25T17:47:24.503Z,20.00
2019-02-25T17:49:53.485Z,18.23
2019-02-25T17:52:22.887Z,15.98
2019-02-25T17:54:52.539Z,16.05
2019-02-25T17:57:22.121Z,13.20
2019-02-25T17:59:51.447Z,16.30
2019-02-25T18:02:21.383Z,17.65
2019-02-25T18:04:51.281Z,18.30
2019-02-25T18:07:20.966Z,20.10
2019-02-25T18:09:49.926Z,16.52
2019-02-25T18:12:19.092Z,16.90
2019-02-25T18:14:48.102Z,15.80
2019-02-25T18:17:18.811Z,17.12
2019-02-25T18:19:48.341Z,16.85
2019-02-25T18:22:18.187Z,17.80
2019-02-25T18:24:47.257Z,16.42
2019-02-25T18:27:19.186Z,19.02
2019-02-25T18:29:48.237Z,18.77
2019-02-25T18:32:19.915Z,20.25
2019-02-25T18:34:49.942Z,21.17
2019-02-25T18:37:19.497Z,19.52
2019-02-25T18:39:49.982Z,18.45
2019-02-25T18:42:21.676Z,21.10
2019-02-25T18:44:51.357Z,19.92
2019-02-25T18:47:23.438Z,20.17
2019-02-25T18:49:53.928Z,19.37
2019-02-25T18:52:22.877Z,17.82
2019-02-25T18:54:51.795Z,24.72
2019-02-25T18:57:23.135Z,25.70
2019-02-25T18:59:52.339Z,21.05
2019-02-25T19:02:21.106Z,20.08
2019-02-25T19:04:49.963Z,18.45
2019-02-25T19:07:19.334Z,26.55
2019-02-25T19:09:49.336Z,37.55
2019-02-25T19:12:18.822Z,20.75
2019-02-25T19:14:51.080Z,21.30
2019-02-25T19:17:18.338Z,26.45
2019-02-25T19:19:49.914Z,19.17
2019-02-25T19:22:19.449Z,26.07
2019-02-25T19:24:49.248Z,21.75
2019-02-25T19:27:19.107Z,24.20
2019-02-25T19:29:49.485Z,21.75
2019-02-25T19:32:18.410Z,29.92
2019-02-25T19:34:47.654Z,22.32
2019-02-25T19:37:16.585Z,20.65
2019-02-25T19:39:46.841Z,24.50
2019-02-25T19:42:18.226Z,32.03
2019-02-25T19:44:47.171Z,28.38
2019-02-25T19:47:16.796Z,24.57
2019-02-25T19:49:46.710Z,27.25
2019-02-25T19:52:16.852Z,32.78
2019-02-25T19:54:47.750Z,34.80
2019-02-25T19:57:18.707Z,26.80
2019-02-25T19:59:50.254Z,27.48
2019-02-25T20:02:17.557Z,27.40
2019-02-25T20:04:51.444Z,21.17
2019-02-25T20:07:20.099Z,22.75
2019-02-25T20:09:48.249Z,26.45
2019-02-25T20:12:20.441Z,23.10
2019-02-25T20:14:47.499Z,22.80
2019-02-25T20:17:16.972Z,27.25
2019-02-25T20:19:48.425Z,23.67
2019-02-25T20:22:18.446Z,24.87
2019-02-25T20:24:48.325Z,29.02
2019-02-25T20:27:17.923Z,26.95
2019-02-25T20:29:47.919Z,27.05
2019-02-25T20:32:18.526Z,28.73
2019-02-25T20:34:49.920Z,20.80
2019-02-25T20:37:18.942Z,24.77
2019-02-25T20:39:48.484Z,31.75
2019-02-25T20:42:21.767Z,23.15
2019-02-25T20:44:49.223Z,25.00
2019-02-25T20:47:18.675Z,28.85
2019-02-25T20:49:49.366Z,22.65
2019-02-25T20:52:18.615Z,31.85
2019-02-25T20:54:49.596Z,29.92
2019-02-25T20:57:18.837Z,21.33
2019-02-25T20:59:48.818Z,29.23
2019-02-25T21:02:18.887Z,26.10
2019-02-25T21:04:50.592Z,29.10
2019-02-25T21:07:21.238Z,30.27
2019-02-25T21:09:50.116Z,40.63
2019-02-25T21:12:20.167Z,37.15
2019-02-25T21:14:49.019Z,32.28
2019-02-25T21:17:17.787Z,30.00
2019-02-25T21:19:47.177Z,28.75
2019-02-25T21:22:15.933Z,32.25
2019-02-25T21:24:44.799Z,31.40
2019-02-25T21:27:13.667Z,39.90
2019-02-25T21:29:42.725Z,31.05
2019-02-25T21:32:15.333Z,33.23
2019-02-25T21:34:46.067Z,30.85
2019-02-25T21:37:13.498Z,30.25
2019-02-25T21:39:42.834Z,31.00
2019-02-25T21:42:14.724Z,32.50
2019-02-25T21:44:46.156Z,34.25
2019-02-25T21:47:12.898Z,22.67
2019-02-25T21:49:41.674Z,31.65
2019-02-25T21:52:15.317Z,33.67
2019-02-25T21:54:45.044Z,30.80
2019-02-25T21:57:14.640Z,34.05
2019-02-25T21:59:43.814Z,33.25
2019-02-25T22:02:12.759Z,30.10
2019-02-25T22:04:43.043Z,31.30
2019-02-25T22:07:12.057Z,29.05
2019-02-25T22:09:45.396Z,29.32
2019-02-25T22:12:15.474Z,30.43
2019-02-25T22:14:46.056Z,35.25
2019-02-25T22:17:19.498Z,32.15
2019-02-25T22:19:51.552Z,33.10
2019-02-25T22:22:26.198Z,30.43
2019-02-25T22:25:01.265Z,31.50
2019-02-25T22:27:30.845Z,27.70
2019-02-25T22:30:00.502Z,35.25
2019-02-25T22:32:31.327Z,30.30
2019-02-25T22:35:02.681Z,27.25
2019-02-25T22:37:31.285Z,29.20
2019-02-25T22:40:00.066Z,27.48
2019-02-25T22:42:29.714Z,33.00
2019-02-25T22:44:59.767Z,29.40
2019-02-25T22:47:28.525Z,33.13
2019-02-25T22:49:57.328Z,29.50
2019-02-25T22:52:27.180Z,30.45
2019-02-25T22:54:56.608Z,29.02
2019-02-25T22:57:27.287Z,31.62
2019-02-25T22:59:55.858Z,26.07
2019-02-25T23:02:27.295Z,25.62
2019-02-25T23:04:56.260Z,24.57
2019-02-25T23:07:25.158Z,24.23
2019-02-25T23:09:54.422Z,25.10
2019-02-25T23:12:24.860Z,28.45
2019-02-25T23:14:56.014Z,32.13
2019-02-25T23:17:24.901Z,29.25
2019-02-25T23:19:53.666Z,30.25
2019-02-25T23:22:22.434Z,29.48
2019-02-25T23:24:51.245Z,30.48
2019-02-25T23:27:20.011Z,30.48
2019-02-25T23:29:48.787Z,29.63
2019-02-25T23:32:17.997Z,29.52
2019-02-25T23:34:49.584Z,29.12
2019-02-25T23:37:19.294Z,27.80
2019-02-25T23:39:47.873Z,31.10
2019-02-25T23:42:18.008Z,32.67
2019-02-25T23:44:46.950Z,32.33
2019-02-25T23:47:15.760Z,29.70
2019-02-25T23:49:46.202Z,28.90
2019-02-25T23:52:15.024Z,31.35
2019-02-25T23:54:45.595Z,33.05
2019-02-25T23:57:17.030Z,28.50
2019-02-25T23:59:47.040Z,33.73
